Time;durP1;ratioP1;P1;durP2;ratioP2;P2;SDS_P1;SDS_P2;PMS_P1;PMS_P2;Temp;Humidity;BMP_temperature;BMP_pressure;BME280_temperature;BME280_humidity;BME280_pressure;Samples;Min_cycle;Max_cycle;Signal;HPM_P1;HPM_P2
2023/05/03 00:00:12;;;;;;;;;;;14.10;49.00;;;;;;5099526;28;19924;-67
2023/05/03 00:02:38;;;;;;;;;;;14.20;49.10;;;;;;5100604;28;19931;-68
2023/05/03 00:05:04;;;;;;;;;;;14.10;49.10;;;;;;5099362;28;20289;-67
2023/05/03 00:07:30;;;;;;;;;;;14.10;49.10;;;;;;5099342;28;19999;-68
2023/05/03 00:09:56;;;;;;;;;;;14.10;49.10;;;;;;5097925;28;20605;-68
2023/05/03 00:12:21;;;;;;;;;;;14.10;49.10;;;;;;5098428;28;19924;-68
2023/05/03 00:14:47;;;;;;;;;;;14.10;49.10;;;;;;5111587;28;20011;-68
2023/05/03 00:17:12;;;;;;;;;;;14.10;49.10;;;;;;5099448;28;20401;-68
2023/05/03 00:19:38;;;;;;;;;;;14.10;49.10;;;;;;5099095;28;19978;-68
2023/05/03 00:22:04;;;;;;;;;;;14.10;49.10;;;;;;5102247;28;20389;-68
2023/05/03 00:24:29;;;;;;;;;;;14.00;49.00;;;;;;5101421;28;19955;-67
2023/05/03 00:26:55;;;;;;;;;;;14.10;49.10;;;;;;5097851;28;20224;-68
2023/05/03 00:29:21;;;;;;;;;;;14.10;49.10;;;;;;5097151;28;19962;-67
2023/05/03 00:31:47;;;;;;;;;;;14.00;49.00;;;;;;5098392;28;20274;-67
2023/05/03 00:34:12;;;;;;;;;;;14.00;49.00;;;;;;5098269;28;20010;-68
2023/05/03 00:36:38;;;;;;;;;;;14.00;49.00;;;;;;5098535;28;19924;-68
2023/05/03 00:39:04;;;;;;;;;;;14.00;49.00;;;;;;5099895;28;19916;-68
2023/05/03 00:41:30;;;;;;;;;;;14.00;49.00;;;;;;5098043;28;19916;-67
2023/05/03 00:43:55;;;;;;;;;;;14.00;49.00;;;;;;5102219;28;19920;-67
2023/05/03 00:46:21;;;;;;;;;;;14.00;49.00;;;;;;5102061;28;19915;-67
2023/05/03 00:48:47;;;;;;;;;;;14.00;49.70;;;;;;5102064;28;19919;-67
2023/05/03 00:51:13;;;;;;;;;;;14.00;49.00;;;;;;5103983;28;19916;-68
2023/05/03 00:53:40;;;;;;;;;;;14.00;49.00;;;;;;5104335;28;20395;-67
2023/05/03 00:56:06;;;;;;;;;;;14.00;49.00;;;;;;5100715;28;19920;-68
2023/05/03 00:58:32;;;;;;;;;;;13.90;48.90;;;;;;5102753;28;19930;-67
2023/05/03 01:00:57;;;;;;;;;;;13.90;48.90;;;;;;5101986;28;20383;-68
2023/05/03 01:03:23;;;;;;;;;;;13.90;48.90;;;;;;5101480;28;19958;-67
2023/05/03 01:05:53;;;;;;;;;;;13.90;48.90;;;;;;5101346;28;19924;-68
2023/05/03 01:08:23;;;;;;;;;;;13.90;48.90;;;;;;5104675;28;19915;-68
2023/05/03 01:10:54;;;;;;;;;;;13.90;48.90;;;;;;5102337;28;20002;-68
2023/05/03 01:13:23;;;;;;;;;;;13.90;48.90;;;;;;5101044;28;19930;-68
2023/05/03 01:16:08;;;;;;;;;;;13.90;48.90;;;;;;5101782;28;19920;-67
2023/05/03 01:18:38;;;;;;;;;;;13.90;48.90;;;;;;5100172;28;19924;-68
2023/05/03 01:21:04;;;;;;;;;;;13.90;48.90;;;;;;5102029;28;19916;-68
2023/05/03 01:23:50;;;;;;;;;;;13.90;48.90;;;;;;5105297;28;19924;-68
2023/05/03 01:28:56;;;;;;;;;;;13.90;48.90;;;;;;5095818;27;19917;-68
2023/05/03 01:31:25;;;;;;;;;;;13.80;48.80;;;;;;5079615;28;19920;-68
2023/05/03 01:33:55;;;;;;;;;;;13.80;48.80;;;;;;5080627;28;19923;-68
2023/05/03 01:36:29;;;;;;;;;;;13.90;48.90;;;;;;5081740;28;20241;-68
2023/05/03 01:38:55;;;;;;;;;;;13.80;48.80;;;;;;5080512;28;20407;-68
2023/05/03 01:41:21;;;;;;;;;;;13.80;48.80;;;;;;5079456;28;19999;-68
2023/05/03 01:43:47;;;;;;;;;;;13.80;48.80;;;;;;5114965;28;19916;-68
2023/05/03 01:46:13;;;;;;;;;;;13.80;48.80;;;;;;5078402;28;20016;-68
2023/05/03 01:48:38;;;;;;;;;;;13.80;48.80;;;;;;5112415;28;20455;-68
2023/05/03 01:51:04;;;;;;;;;;;13.80;48.80;;;;;;5080799;28;20046;-68
2023/05/03 01:53:30;;;;;;;;;;;13.80;48.80;;;;;;5114678;28;20265;-67
2023/05/03 01:55:55;;;;;;;;;;;13.80;48.80;;;;;;5079373;28;20274;-67
2023/05/03 01:58:21;;;;;;;;;;;13.80;48.80;;;;;;5082212;28;19917;-68
2023/05/03 02:00:46;;;;;;;;;;;13.80;48.80;;;;;;5079052;28;19920;-68
2023/05/03 02:03:12;;;;;;;;;;;13.80;48.80;;;;;;5079232;28;20354;-68
2023/05/03 02:05:37;;;;;;;;;;;13.70;48.70;;;;;;5079060;28;19921;-68
2023/05/03 02:08:03;;;;;;;;;;;13.70;48.70;;;;;;5080852;28;19928;-68
2023/05/03 02:10:28;;;;;;;;;;;13.70;48.70;;;;;;5080630;28;19917;-68
2023/05/03 02:12:54;;;;;;;;;;;13.70;48.80;;;;;;5079439;28;20360;-68
2023/05/03 02:15:19;;;;;;;;;;;13.70;48.70;;;;;;5080630;28;19916;-68
2023/05/03 02:17:46;;;;;;;;;;;13.70;48.70;;;;;;5079040;28;19916;-68
2023/05/03 02:20:12;;;;;;;;;;;13.70;48.70;;;;;;5081747;28;19917;-68
2023/05/03 02:22:37;;;;;;;;;;;13.70;48.70;;;;;;5079466;28;19917;-68
2023/05/03 02:25:03;;;;;;;;;;;13.70;48.70;;;;;;5110722;28;19921;-68
2023/05/03 02:27:29;;;;;;;;;;;13.70;48.70;;;;;;5088427;28;19967;-68
2023/05/03 02:29:55;;;;;;;;;;;13.70;48.60;;;;;;5083138;28;19966;-68
2023/05/03 02:32:20;;;;;;;;;;;13.70;48.70;;;;;;5082467;28;20041;-68
2023/05/03 02:34:47;;;;;;;;;;;13.70;48.60;;;;;;5101230;28;19916;-68
2023/05/03 02:37:12;;;;;;;;;;;13.70;48.60;;;;;;5099827;28;19923;-68
2023/05/03 02:39:38;;;;;;;;;;;13.70;48.60;;;;;;5089500;28;20434;-68
2023/05/03 02:42:03;;;;;;;;;;;13.70;48.50;;;;;;5102138;28;19923;-68
2023/05/03 02:44:29;;;;;;;;;;;13.70;48.50;;;;;;5069370;28;19924;-67
2023/05/03 02:46:55;;;;;;;;;;;13.70;48.40;;;;;;5069130;28;19924;-68
2023/05/03 02:49:20;;;;;;;;;;;13.70;48.30;;;;;;5068918;28;20014;-68
2023/05/03 02:51:46;;;;;;;;;;;13.70;48.30;;;;;;5066446;28;19917;-68
2023/05/03 02:54:11;;;;;;;;;;;13.70;48.20;;;;;;5087291;28;19924;-67
2023/05/03 02:56:37;;;;;;;;;;;13.70;48.20;;;;;;5068997;28;20430;-68
2023/05/03 02:59:02;;;;;;;;;;;13.70;48.20;;;;;;5069261;28;19969;-68
2023/05/03 03:01:28;;;;;;;;;;;13.70;48.20;;;;;;5086710;28;19920;-68
2023/05/03 03:03:54;;;;;;;;;;;13.70;48.10;;;;;;5068711;28;19961;-67
2023/05/03 03:06:20;;;;;;;;;;;13.70;48.20;;;;;;5086934;28;20368;-68
2023/05/03 03:08:45;;;;;;;;;;;13.70;48.10;;;;;;5086483;28;19920;-68
2023/05/03 03:11:11;;;;;;;;;;;13.70;48.10;;;;;;5069141;28;20251;-68
2023/05/03 03:13:38;;;;;;;;;;;13.70;48.00;;;;;;5067608;28;19916;-68
2023/05/03 03:16:05;;;;;;;;;;;13.70;48.00;;;;;;5067509;28;19924;-68
2023/05/03 03:18:30;;;;;;;;;;;13.70;48.00;;;;;;5101395;28;20379;-68
2023/05/03 03:20:56;;;;;;;;;;;13.70;48.00;;;;;;5068140;28;19923;-68
2023/05/03 03:23:21;;;;;;;;;;;13.70;47.90;;;;;;5068168;28;20151;-68
2023/05/03 03:25:47;;;;;;;;;;;13.70;47.80;;;;;;5083793;28;19916;-68
2023/05/03 03:28:12;;;;;;;;;;;13.70;47.80;;;;;;5067828;28;20019;-68
2023/05/03 03:30:38;;;;;;;;;;;13.70;47.90;;;;;;5068233;28;20295;-67
2023/05/03 03:33:03;;;;;;;;;;;13.70;48.60;;;;;;5086247;28;19963;-68
2023/05/03 03:35:29;;;;;;;;;;;13.70;47.90;;;;;;5068555;28;20359;-68
2023/05/03 03:37:54;;;;;;;;;;;13.70;47.80;;;;;;5068429;28;20002;-68
2023/05/03 03:40:20;;;;;;;;;;;13.70;47.80;;;;;;5101528;28;20374;-68
2023/05/03 03:42:45;;;;;;;;;;;13.70;47.80;;;;;;5086434;28;19916;-68
2023/05/03 03:45:11;;;;;;;;;;;13.70;47.80;;;;;;5100711;28;19916;-68
2023/05/03 03:47:37;;;;;;;;;;;13.70;47.80;;;;;;5084993;28;19968;-68
2023/05/03 03:50:02;;;;;;;;;;;13.70;47.70;;;;;;5066243;28;19926;-67
2023/05/03 03:52:28;;;;;;;;;;;13.70;47.70;;;;;;5101720;28;19924;-68
2023/05/03 03:54:54;;;;;;;;;;;13.70;47.70;;;;;;5066695;28;19948;-68
2023/05/03 03:57:19;;;;;;;;;;;13.70;47.70;;;;;;5066955;28;19924;-68
2023/05/03 03:59:45;;;;;;;;;;;13.70;47.70;;;;;;5084849;28;20391;-68
2023/05/03 04:02:10;;;;;;;;;;;13.70;47.70;;;;;;5101935;28;19916;-68
2023/05/03 04:04:35;;;;;;;;;;;13.60;47.60;;;;;;5067390;28;19939;-68
2023/05/03 04:07:01;;;;;;;;;;;13.60;47.60;;;;;;5086230;28;19931;-68
2023/05/03 04:09:26;;;;;;;;;;;13.60;47.70;;;;;;5067503;28;20403;-68
2023/05/03 04:11:52;;;;;;;;;;;13.60;47.60;;;;;;5101617;28;20054;-68
2023/05/03 04:14:17;;;;;;;;;;;13.60;47.60;;;;;;5067240;28;19926;-68
2023/05/03 04:16:43;;;;;;;;;;;13.60;47.60;;;;;;5101299;28;19937;-68
2023/05/03 04:19:08;;;;;;;;;;;13.60;47.60;;;;;;5085400;28;20287;-68
2023/05/03 04:21:34;;;;;;;;;;;13.60;47.60;;;;;;5097826;28;19916;-68
2023/05/03 04:24:03;;;;;;;;;;;13.60;47.60;;;;;;5067505;28;19916;-68
2023/05/03 04:26:28;;;;;;;;;;;13.60;47.60;;;;;;5083537;28;20378;-68
2023/05/03 04:28:54;;;;;;;;;;;13.60;47.60;;;;;;5099656;28;19927;-68
2023/05/03 04:31:20;;;;;;;;;;;13.60;47.60;;;;;;5100225;28;20199;-68
2023/05/03 04:33:46;;;;;;;;;;;13.60;47.60;;;;;;5066181;28;19924;-68
2023/05/03 04:36:14;;;;;;;;;;;13.60;47.60;;;;;;5066912;28;20425;-68
2023/05/03 04:38:40;;;;;;;;;;;13.60;47.60;;;;;;5085083;28;19916;-68
2023/05/03 04:41:06;;;;;;;;;;;13.60;47.60;;;;;;5084357;28;19916;-68
2023/05/03 04:43:31;;;;;;;;;;;13.60;47.60;;;;;;5066711;28;20386;-68
2023/05/03 04:45:57;;;;;;;;;;;13.60;47.60;;;;;;5067145;28;19958;-68
2023/05/03 04:48:23;;;;;;;;;;;13.50;47.60;;;;;;5066516;28;19920;-68
2023/05/03 04:50:48;;;;;;;;;;;13.60;47.60;;;;;;5064327;28;19927;-68
2023/05/03 04:53:14;;;;;;;;;;;13.50;47.60;;;;;;5066865;28;19916;-68
2023/05/03 04:55:40;;;;;;;;;;;13.60;47.60;;;;;;5067056;28;19916;-68
2023/05/03 04:58:06;;;;;;;;;;;13.50;47.60;;;;;;5066598;28;19924;-68
2023/05/03 05:00:32;;;;;;;;;;;13.50;47.60;;;;;;5067245;28;19977;-68
2023/05/03 05:02:57;;;;;;;;;;;13.50;47.60;;;;;;5065580;28;19916;-68
2023/05/03 05:05:23;;;;;;;;;;;13.50;47.60;;;;;;5065607;28;20389;-68
2023/05/03 05:07:48;;;;;;;;;;;13.50;47.60;;;;;;5099102;28;19920;-68
2023/05/03 05:10:14;;;;;;;;;;;13.50;47.60;;;;;;5084637;28;19926;-68
2023/05/03 05:12:39;;;;;;;;;;;13.50;47.70;;;;;;5066497;28;20291;-68
2023/05/03 05:15:05;;;;;;;;;;;13.50;47.60;;;;;;5099956;28;19959;-68
2023/05/03 05:17:31;;;;;;;;;;;13.50;47.60;;;;;;5084722;28;20358;-68
2023/05/03 05:19:56;;;;;;;;;;;13.50;47.60;;;;;;5065856;28;20010;-68
2023/05/03 05:22:22;;;;;;;;;;;13.50;47.60;;;;;;5064393;28;19919;-67
2023/05/03 05:24:47;;;;;;;;;;;13.50;47.60;;;;;;5083943;28;20044;-68
2023/05/03 05:27:13;;;;;;;;;;;13.50;47.60;;;;;;5065919;28;20041;-68
2023/05/03 05:29:38;;;;;;;;;;;13.50;47.60;;;;;;5084229;28;19916;-68
2023/05/03 05:32:04;;;;;;;;;;;13.50;47.60;;;;;;5066155;28;19916;-68
2023/05/03 05:34:30;;;;;;;;;;;13.50;47.70;;;;;;5099186;28;19939;-68
2023/05/03 05:36:56;;;;;;;;;;;13.50;47.60;;;;;;5065479;28;19931;-68
2023/05/03 05:39:22;;;;;;;;;;;13.50;47.60;;;;;;5083194;28;19916;-68
2023/05/03 05:41:48;;;;;;;;;;;13.50;47.70;;;;;;5066949;28;20537;-68
2023/05/03 05:44:13;;;;;;;;;;;13.50;47.70;;;;;;5083929;28;20007;-68
2023/05/03 05:46:39;;;;;;;;;;;13.50;47.70;;;;;;5099979;28;19916;-68
2023/05/03 05:49:05;;;;;;;;;;;13.40;47.60;;;;;;5084090;28;19922;-69
2023/05/03 05:51:30;;;;;;;;;;;13.40;47.70;;;;;;5081108;28;20002;-68
2023/05/03 05:53:56;;;;;;;;;;;13.40;47.70;;;;;;5066662;28;19916;-68
2023/05/03 05:56:21;;;;;;;;;;;13.40;47.80;;;;;;5085332;28;20283;-67
2023/05/03 05:58:47;;;;;;;;;;;13.40;47.80;;;;;;5065341;28;20283;-68
2023/05/03 06:01:13;;;;;;;;;;;13.40;47.80;;;;;;5066852;28;19917;-68
2023/05/03 06:03:38;;;;;;;;;;;13.40;47.80;;;;;;5065063;28;20007;-68
2023/05/03 06:06:04;;;;;;;;;;;13.40;47.80;;;;;;5084714;28;19916;-68
2023/05/03 06:08:29;;;;;;;;;;;13.40;47.90;;;;;;5065212;28;20279;-68
2023/05/03 06:10:55;;;;;;;;;;;13.40;47.90;;;;;;5098808;28;19916;-68
2023/05/03 06:13:21;;;;;;;;;;;13.40;47.90;;;;;;5065200;28;20284;-68
2023/05/03 06:15:46;;;;;;;;;;;13.40;47.80;;;;;;5068523;28;19916;-68
2023/05/03 06:18:12;;;;;;;;;;;13.50;47.90;;;;;;5104038;28;19917;-68
2023/05/03 06:20:37;;;;;;;;;;;13.40;47.80;;;;;;5102579;28;20432;-68
2023/05/03 06:23:03;;;;;;;;;;;13.40;47.80;;;;;;5101575;28;19951;-68
2023/05/03 06:25:28;;;;;;;;;;;13.40;47.80;;;;;;5104060;28;20015;-69
2023/05/03 06:27:54;;;;;;;;;;;13.40;47.90;;;;;;5069491;28;19920;-68
2023/05/03 06:30:19;;;;;;;;;;;13.50;47.90;;;;;;5068471;28;20377;-68
2023/05/03 06:32:46;;;;;;;;;;;13.40;47.90;;;;;;5088116;28;19962;-69
2023/05/03 06:35:11;;;;;;;;;;;13.50;47.90;;;;;;5086949;28;19951;-69
2023/05/03 06:37:37;;;;;;;;;;;13.50;47.90;;;;;;5069971;28;19997;-68
2023/05/03 06:40:03;;;;;;;;;;;13.50;48.00;;;;;;5068949;28;19946;-68
2023/05/03 06:42:30;;;;;;;;;;;13.50;48.00;;;;;;5068404;28;19931;-68
2023/05/03 06:44:55;;;;;;;;;;;13.50;48.00;;;;;;5101925;28;19920;-68
2023/05/03 06:47:21;;;;;;;;;;;13.50;48.00;;;;;;5068165;28;20015;-68
2023/05/03 06:49:46;;;;;;;;;;;13.50;48.00;;;;;;5085861;28;19920;-68
2023/05/03 06:52:12;;;;;;;;;;;13.50;48.10;;;;;;5068165;28;19921;-68
2023/05/03 06:54:39;;;;;;;;;;;13.40;48.00;;;;;;5101944;28;19920;-68
2023/05/03 06:57:04;;;;;;;;;;;13.50;48.10;;;;;;5102911;28;19916;-68
2023/05/03 06:59:30;;;;;;;;;;;13.50;48.20;;;;;;5086055;28;19957;-68
2023/05/03 07:01:55;;;;;;;;;;;13.50;48.20;;;;;;5086103;28;19949;-68
2023/05/03 07:04:21;;;;;;;;;;;13.50;48.20;;;;;;5067823;28;19916;-68
2023/05/03 07:06:46;;;;;;;;;;;13.50;48.30;;;;;;5103162;28;20267;-68
2023/05/03 07:09:12;;;;;;;;;;;13.50;48.30;;;;;;5068307;28;20252;-68
2023/05/03 07:11:43;;;;;;;;;;;13.50;48.30;;;;;;5069316;28;19928;-68
2023/05/03 07:14:08;;;;;;;;;;;13.50;48.30;;;;;;5086556;28;20283;-68
2023/05/03 07:16:34;;;;;;;;;;;13.50;48.30;;;;;;5102035;28;19923;-67
2023/05/03 07:18:59;;;;;;;;;;;13.50;48.30;;;;;;5069145;28;20363;-68
2023/05/03 07:21:25;;;;;;;;;;;13.50;48.30;;;;;;5065694;28;19916;-68
2023/05/03 07:23:51;;;;;;;;;;;13.50;48.30;;;;;;5087128;28;19922;-67
2023/05/03 07:26:16;;;;;;;;;;;13.50;48.20;;;;;;5069198;28;19917;-68
2023/05/03 07:28:42;;;;;;;;;;;13.60;48.20;;;;;;5082968;28;19920;-67
2023/05/03 07:31:07;;;;;;;;;;;13.60;48.20;;;;;;5087128;28;20442;-67
2023/05/03 07:33:34;;;;;;;;;;;13.50;48.20;;;;;;5068224;28;19928;-67
2023/05/03 07:35:59;;;;;;;;;;;13.60;48.20;;;;;;5086308;28;19916;-68
2023/05/03 07:38:25;;;;;;;;;;;13.60;48.20;;;;;;5086061;28;19917;-68
2023/05/03 07:40:50;;;;;;;;;;;13.60;48.20;;;;;;5068200;28;19955;-67
2023/05/03 07:43:18;;;;;;;;;;;13.60;48.20;;;;;;5068429;28;19920;-67
2023/05/03 07:45:43;;;;;;;;;;;13.60;48.20;;;;;;5085658;28;19976;-68
2023/05/03 07:48:09;;;;;;;;;;;13.50;48.10;;;;;;5086418;28;20374;-67
2023/05/03 07:50:34;;;;;;;;;;;13.60;48.10;;;;;;5098496;28;19920;-68
2023/05/03 07:53:00;;;;;;;;;;;13.60;48.10;;;;;;5103950;28;19916;-68
2023/05/03 07:55:25;;;;;;;;;;;13.60;48.10;;;;;;5101429;28;19952;-67
2023/05/03 07:57:57;;;;;;;;;;;13.60;48.10;;;;;;5086306;28;20263;-67
2023/05/03 08:00:22;;;;;;;;;;;13.60;48.10;;;;;;5068059;28;19947;-67
2023/05/03 08:02:48;;;;;;;;;;;13.60;48.10;;;;;;5066645;28;20320;-67
2023/05/03 08:05:13;;;;;;;;;;;13.50;48.00;;;;;;5084614;28;19921;-68
2023/05/03 08:07:39;;;;;;;;;;;13.60;48.00;;;;;;5085375;28;20019;-69
2023/05/03 08:10:05;;;;;;;;;;;13.50;48.00;;;;;;5068469;28;19924;-67
2023/05/03 08:12:30;;;;;;;;;;;13.50;48.00;;;;;;5066430;28;19923;-68
2023/05/03 08:14:56;;;;;;;;;;;13.60;48.00;;;;;;5068318;28;19917;-67
2023/05/03 08:17:22;;;;;;;;;;;13.60;48.00;;;;;;5100658;28;19915;-67
2023/05/03 08:19:47;;;;;;;;;;;13.50;48.00;;;;;;5068430;28;20146;-68
2023/05/03 08:22:13;;;;;;;;;;;13.50;48.00;;;;;;5099880;28;19924;-68
2023/05/03 08:24:39;;;;;;;;;;;13.60;48.00;;;;;;5099827;28;19917;-68
2023/05/03 08:27:05;;;;;;;;;;;13.60;48.00;;;;;;5065851;28;19920;-67
2023/05/03 08:29:31;;;;;;;;;;;13.60;48.00;;;;;;5085663;28;19923;-67
2023/05/03 08:31:57;;;;;;;;;;;13.60;48.00;;;;;;5084021;28;20278;-68
2023/05/03 08:34:24;;;;;;;;;;;13.50;47.90;;;;;;5083973;28;19955;-68
2023/05/03 08:36:49;;;;;;;;;;;13.60;48.00;;;;;;5077907;28;19916;-67
2023/05/03 08:39:16;;;;;;;;;;;13.60;48.00;;;;;;5080597;28;19923;-67
2023/05/03 08:41:41;;;;;;;;;;;13.60;48.00;;;;;;5085858;28;20399;-67
2023/05/03 08:44:10;;;;;;;;;;;13.60;48.00;;;;;;5066396;28;19923;-67
2023/05/03 08:46:37;;;;;;;;;;;13.60;48.00;;;;;;5099129;28;19917;-67
2023/05/03 08:49:02;;;;;;;;;;;13.60;48.00;;;;;;5066209;28;19920;-67
2023/05/03 08:51:28;;;;;;;;;;;13.60;48.00;;;;;;5063702;28;19931;-67
2023/05/03 08:53:54;;;;;;;;;;;13.60;48.00;;;;;;5065920;28;20040;-67
2023/05/03 08:56:24;;;;;;;;;;;13.60;48.00;;;;;;5067674;28;20008;-67
2023/05/03 08:58:50;;;;;;;;;;;13.60;48.00;;;;;;5101022;28;19923;-68
2023/05/03 09:01:15;;;;;;;;;;;13.70;47.80;;;;;;5065978;28;19916;-68
2023/05/03 09:03:47;;;;;;;;;;;13.70;47.80;;;;;;5067424;28;19959;-67
2023/05/03 09:06:21;;;;;;;;;;;13.70;47.70;;;;;;5064860;28;19923;-68
2023/05/03 09:08:46;;;;;;;;;;;13.70;47.60;;;;;;5099138;28;19920;-68
2023/05/03 09:11:20;;;;;;;;;;;13.70;47.50;;;;;;5083726;28;19916;-67
2023/05/03 09:13:45;;;;;;;;;;;13.80;47.50;;;;;;5065914;28;19947;-67
2023/05/03 09:16:20;;;;;;;;;;;13.80;47.40;;;;;;5065380;28;20370;-68
2023/05/03 09:18:55;;;;;;;;;;;13.80;47.30;;;;;;5065642;28;19967;-68
2023/05/03 09:21:20;;;;;;;;;;;13.80;47.30;;;;;;5066438;28;20150;-68
2023/05/03 09:23:46;;;;;;;;;;;13.90;47.30;;;;;;5066556;28;20422;-68
2023/05/03 09:26:26;;;;;;;;;;;14.00;47.30;;;;;;5082097;28;20046;-67
2023/05/03 09:28:51;;;;;;;;;;;13.90;47.20;;;;;;5064670;28;20270;-68
2023/05/03 09:31:17;;;;;;;;;;;14.00;47.20;;;;;;5083580;28;19995;-68
2023/05/03 09:33:42;;;;;;;;;;;14.00;47.20;;;;;;5066558;28;19922;-67
2023/05/03 09:36:08;;;;;;;;;;;14.00;47.10;;;;;;5065542;28;20321;-68
2023/05/03 09:38:35;;;;;;;;;;;14.00;47.10;;;;;;5061805;28;19962;-68
2023/05/03 09:41:02;;;;;;;;;;;14.00;47.10;;;;;;5065150;28;19938;-67
2023/05/03 09:43:27;;;;;;;;;;;14.00;47.10;;;;;;5067280;28;19917;-68
2023/05/03 09:46:05;;;;;;;;;;;14.00;47.10;;;;;;5065645;28;19923;-68
2023/05/03 09:48:31;;;;;;;;;;;14.00;47.10;;;;;;5082188;28;19920;-67
2023/05/03 09:50:56;;;;;;;;;;;14.00;47.10;;;;;;5071593;28;19924;-68
2023/05/03 09:53:22;;;;;;;;;;;14.10;47.10;;;;;;5066880;28;19917;-67
2023/05/03 09:55:49;;;;;;;;;;;14.00;47.10;;;;;;5070175;28;19927;-67
2023/05/03 09:58:17;;;;;;;;;;;14.00;47.10;;;;;;5070559;28;19916;-68
2023/05/03 10:00:45;;;;;;;;;;;14.00;47.10;;;;;;5069664;28;20316;-68
2023/05/03 10:03:11;;;;;;;;;;;14.00;47.10;;;;;;5066361;28;19924;-68
2023/05/03 10:05:40;;;;;;;;;;;14.00;47.10;;;;;;5069190;28;19916;-68
2023/05/03 10:08:06;;;;;;;;;;;14.00;47.10;;;;;;5088219;28;19932;-67
2023/05/03 10:10:33;;;;;;;;;;;14.00;47.10;;;;;;5087829;28;20291;-69
2023/05/03 10:13:00;;;;;;;;;;;14.00;47.10;;;;;;5088112;28;20001;-69
2023/05/03 10:15:26;;;;;;;;;;;14.10;47.10;;;;;;5103776;28;20003;-67
2023/05/03 10:17:52;;;;;;;;;;;14.00;47.00;;;;;;5086801;28;19995;-67
2023/05/03 10:20:35;;;;;;;;;;;14.00;47.00;;;;;;5085767;28;19920;-68
2023/05/03 10:26:03;;;;;;;;;;;14.00;47.80;;;;;;5078461;28;19931;-67
2023/05/03 10:28:29;;;;;;;;;;;14.10;47.10;;;;;;5075953;28;20270;-68
2023/05/03 10:30:54;;;;;;;;;;;14.10;47.10;;;;;;5072861;28;19916;-68
2023/05/03 10:33:27;;;;;;;;;;;14.10;47.20;;;;;;5075301;28;19917;-68
2023/05/03 10:35:53;;;;;;;;;;;14.10;47.20;;;;;;5073239;28;19931;-68
2023/05/03 10:38:21;;;;;;;;;;;14.10;47.30;;;;;;5073705;28;20355;-67
2023/05/03 10:40:46;;;;;;;;;;;14.00;47.20;;;;;;5073999;28;19983;-67
2023/05/03 10:43:32;;;;;;;;;;;14.00;47.20;;;;;;5072424;28;19921;-68
2023/05/03 10:48:38;;;;;;;;;;;14.10;47.30;;;;;;5101845;27;19913;-67
2023/05/03 10:51:23;;;;;;;;;;;14.10;47.30;;;;;;5105122;28;19923;-68
2023/05/03 10:53:49;;;;;;;;;;;14.10;47.40;;;;;;5087022;28;19922;-67
2023/05/03 10:56:14;;;;;;;;;;;14.10;48.10;;;;;;5121447;28;19917;-67
2023/05/03 10:58:44;;;;;;;;;;;14.00;47.30;;;;;;5087495;28;19920;-67
2023/05/03 11:01:11;;;;;;;;;;;14.00;47.40;;;;;;5086129;28;20343;-68
2023/05/03 11:06:26;;;;;;;;;;;14.00;47.40;;;;;;5084526;27;19912;-67
2023/05/03 11:08:52;;;;;;;;;;;14.10;47.40;;;;;;5082492;28;20270;-68
2023/05/03 11:11:17;;;;;;;;;;;14.00;47.40;;;;;;5063432;28;20005;-68
2023/05/03 11:13:43;;;;;;;;;;;14.00;47.40;;;;;;5083446;28;19923;-67
2023/05/03 11:16:08;;;;;;;;;;;14.10;47.50;;;;;;5084100;28;20432;-68
2023/05/03 11:18:35;;;;;;;;;;;14.00;47.50;;;;;;5082564;28;20212;-68
2023/05/03 11:21:00;;;;;;;;;;;14.10;47.60;;;;;;5117142;28;19916;-67
2023/05/03 11:23:27;;;;;;;;;;;14.10;47.60;;;;;;5116130;28;19935;-67
2023/05/03 11:25:52;;;;;;;;;;;14.00;47.60;;;;;;5083425;28;19969;-67
2023/05/03 11:28:18;;;;;;;;;;;14.10;47.70;;;;;;5112577;28;20359;-67
2023/05/03 11:30:45;;;;;;;;;;;14.10;47.80;;;;;;5082306;28;20271;-67
2023/05/03 11:33:10;;;;;;;;;;;14.00;47.70;;;;;;5083268;28;19977;-68
2023/05/03 11:35:36;;;;;;;;;;;14.00;47.90;;;;;;5083613;28;20351;-68
2023/05/03 11:38:01;;;;;;;;;;;14.10;47.80;;;;;;5118299;28;19923;-67
2023/05/03 11:40:27;;;;;;;;;;;14.10;47.80;;;;;;5081828;28;19920;-68
2023/05/03 11:42:54;;;;;;;;;;;14.00;47.80;;;;;;5083415;28;19923;-67
2023/05/03 11:45:22;;;;;;;;;;;14.00;47.80;;;;;;5116643;28;19920;-67
2023/05/03 11:47:48;;;;;;;;;;;14.10;47.90;;;;;;5081025;28;20351;-67
2023/05/03 11:50:13;;;;;;;;;;;14.10;47.90;;;;;;5116572;28;19916;-67
2023/05/03 11:52:40;;;;;;;;;;;14.00;47.80;;;;;;5081417;28;19922;-67
2023/05/03 11:55:06;;;;;;;;;;;14.00;47.90;;;;;;5081798;28;20007;-67
2023/05/03 11:57:31;;;;;;;;;;;14.00;47.90;;;;;;5115424;28;20003;-67
2023/05/03 12:00:08;;;;;;;;;;;14.00;47.90;;;;;;5081251;28;19938;-67
2023/05/03 12:02:34;;;;;;;;;;;14.00;47.90;;;;;;5081001;28;19920;-68
2023/05/03 12:05:00;;;;;;;;;;;14.00;47.90;;;;;;5081046;28;20374;-68
2023/05/03 12:07:26;;;;;;;;;;;14.10;47.90;;;;;;5117171;28;19924;-67
2023/05/03 12:09:52;;;;;;;;;;;14.10;47.90;;;;;;5115180;28;19917;-67
2023/05/03 12:12:18;;;;;;;;;;;14.00;47.90;;;;;;5082886;28;19924;-67
2023/05/03 12:14:53;;;;;;;;;;;14.10;47.90;;;;;;5078829;28;19920;-67
2023/05/03 12:17:39;;;;;;;;;;;14.10;47.90;;;;;;5071244;28;20428;-67
2023/05/03 12:20:12;;;;;;;;;;;14.10;48.00;;;;;;5067727;28;19917;-68
2023/05/03 12:22:38;;;;;;;;;;;14.10;48.00;;;;;;5067436;28;19917;-68
2023/05/03 12:25:03;;;;;;;;;;;14.10;48.00;;;;;;5069182;28;19921;-67
2023/05/03 12:27:29;;;;;;;;;;;14.10;48.00;;;;;;5065728;28;19961;-67
2023/05/03 12:29:54;;;;;;;;;;;14.10;48.00;;;;;;5068061;28;19924;-67
2023/05/03 12:32:20;;;;;;;;;;;14.10;48.10;;;;;;5068762;28;20359;-67
2023/05/03 12:34:45;;;;;;;;;;;14.10;48.00;;;;;;5067973;28;19966;-68
2023/05/03 12:37:11;;;;;;;;;;;14.10;48.10;;;;;;5067007;28;19932;-68
2023/05/03 12:39:36;;;;;;;;;;;14.10;48.00;;;;;;5068426;28;20029;-67
2023/05/03 12:42:02;;;;;;;;;;;14.10;48.00;;;;;;5067607;28;19924;-68
2023/05/03 12:44:27;;;;;;;;;;;14.10;48.10;;;;;;5067516;28;19964;-67
2023/05/03 12:46:53;;;;;;;;;;;14.10;48.10;;;;;;5068846;28;20002;-67
2023/05/03 12:49:18;;;;;;;;;;;14.10;48.10;;;;;;5067183;28;19917;-67
2023/05/03 12:51:44;;;;;;;;;;;14.10;48.10;;;;;;5064975;28;19972;-67
2023/05/03 12:54:10;;;;;;;;;;;14.10;48.10;;;;;;5102530;28;19920;-67
2023/05/03 12:56:36;;;;;;;;;;;14.10;48.10;;;;;;5101022;28;19921;-67
2023/05/03 12:59:02;;;;;;;;;;;14.10;48.10;;;;;;5067377;28;19932;-68
2023/05/03 13:01:28;;;;;;;;;;;14.10;48.20;;;;;;5068578;28;19925;-67
2023/05/03 13:03:53;;;;;;;;;;;14.20;48.20;;;;;;5101791;28;19916;-67
2023/05/03 13:06:19;;;;;;;;;;;14.10;48.10;;;;;;5067228;28;19927;-67
2023/05/03 13:08:44;;;;;;;;;;;14.20;48.20;;;;;;5067597;28;20318;-67
2023/05/03 13:11:10;;;;;;;;;;;14.20;48.20;;;;;;5101179;28;19916;-67
2023/05/03 13:13:36;;;;;;;;;;;14.20;48.20;;;;;;5067928;28;19920;-67
2023/05/03 13:16:04;;;;;;;;;;;14.20;48.30;;;;;;5066272;28;19932;-67
2023/05/03 13:18:30;;;;;;;;;;;14.20;48.30;;;;;;5067465;28;19939;-68
2023/05/03 13:20:56;;;;;;;;;;;14.20;48.30;;;;;;5068238;28;19928;-67
2023/05/03 13:23:21;;;;;;;;;;;14.20;48.40;;;;;;5066658;28;20260;-67
2023/05/03 13:25:47;;;;;;;;;;;14.20;48.30;;;;;;5069326;28;19920;-67
2023/05/03 13:28:12;;;;;;;;;;;14.20;48.30;;;;;;5061564;28;20442;-68
2023/05/03 13:30:38;;;;;;;;;;;14.20;48.30;;;;;;5100549;28;19917;-68
2023/05/03 13:33:03;;;;;;;;;;;14.20;48.40;;;;;;5068016;28;19924;-67
2023/05/03 13:35:29;;;;;;;;;;;14.20;48.30;;;;;;5101200;28;19959;-67
2023/05/03 13:37:55;;;;;;;;;;;14.20;48.40;;;;;;5065966;28;19920;-68
2023/05/03 13:40:21;;;;;;;;;;;14.20;48.40;;;;;;5066516;28;19970;-67
2023/05/03 13:42:47;;;;;;;;;;;14.30;48.50;;;;;;5066005;28;20405;-67
2023/05/03 13:45:14;;;;;;;;;;;14.20;48.40;;;;;;5099451;28;19925;-68
2023/05/03 13:47:40;;;;;;;;;;;14.20;48.40;;;;;;5066231;28;19916;-67
2023/05/03 13:50:06;;;;;;;;;;;14.30;48.50;;;;;;5065561;28;20390;-67
2023/05/03 13:52:32;;;;;;;;;;;14.20;48.40;;;;;;5062810;28;20271;-67
2023/05/03 13:54:59;;;;;;;;;;;14.30;48.50;;;;;;5066305;28;19916;-67
2023/05/03 13:57:24;;;;;;;;;;;14.20;48.50;;;;;;5065908;28;20002;-67
2023/05/03 13:59:50;;;;;;;;;;;14.20;48.40;;;;;;5100170;28;20012;-67
2023/05/03 14:02:16;;;;;;;;;;;14.30;48.50;;;;;;5062229;28;20018;-68
2023/05/03 14:04:41;;;;;;;;;;;14.30;48.70;;;;;;5099231;28;19971;-67
2023/05/03 14:07:07;;;;;;;;;;;14.30;48.60;;;;;;5067787;28;19928;-67
2023/05/03 14:09:37;;;;;;;;;;;14.30;48.60;;;;;;5065850;28;19916;-67
2023/05/03 14:12:04;;;;;;;;;;;14.30;48.60;;;;;;5067612;28;19916;-67
2023/05/03 14:14:30;;;;;;;;;;;14.30;48.60;;;;;;5067169;28;19925;-68
2023/05/03 14:16:55;;;;;;;;;;;14.30;48.60;;;;;;5099433;28;19970;-67
2023/05/03 14:19:21;;;;;;;;;;;14.30;48.60;;;;;;5067298;28;20458;-68
2023/05/03 14:21:48;;;;;;;;;;;14.30;48.70;;;;;;5064868;28;19924;-68